createdAt,value
2017-10-01T00:01:59.362Z,73.80
2017-10-01T00:04:28.783Z,73.90
2017-10-01T00:06:58.314Z,73.80
2017-10-01T00:09:27.810Z,74.60
2017-10-01T00:11:57.636Z,74.90
2017-10-01T00:14:26.484Z,73.00
2017-10-01T00:16:54.323Z,72.30
2017-10-01T00:19:23.346Z,73.60
2017-10-01T00:21:52.598Z,72.50
2017-10-01T00:24:23.895Z,74.20
2017-10-01T00:26:52.894Z,74.20
2017-10-01T00:29:23.641Z,73.30
2017-10-01T00:31:52.350Z,72.50
2017-10-01T00:34:22.538Z,73.40
2017-10-01T00:36:52.271Z,73.40
2017-10-01T00:39:21.532Z,73.30
2017-10-01T00:41:50.988Z,73.20
2017-10-01T00:44:19.736Z,72.80
2017-10-01T00:46:49.169Z,74.30
2017-10-01T00:49:19.563Z,74.30
2017-10-01T00:51:48.108Z,73.30
2017-10-01T00:54:17.722Z,71.50
2017-10-01T00:56:47.337Z,71.40
2017-10-01T00:59:17.221Z,72.50
2017-10-01T01:01:46.712Z,72.50
2017-10-01T01:04:16.248Z,73.00
2017-10-01T01:06:45.598Z,73.50
2017-10-01T01:09:14.359Z,73.40
2017-10-01T01:11:42.653Z,73.00
2017-10-01T01:14:12.685Z,72.70
2017-10-01T01:16:42.052Z,72.40
2017-10-01T01:19:11.667Z,73.70
2017-10-01T01:21:42.274Z,73.60
2017-10-01T01:24:12.116Z,74.60
2017-10-01T01:26:41.753Z,73.70
2017-10-01T01:29:10.791Z,73.60
2017-10-01T01:31:41.130Z,71.80
2017-10-01T01:34:11.443Z,71.50
2017-10-01T01:36:40.645Z,71.90
2017-10-01T01:39:10.970Z,73.10
2017-10-01T01:41:41.629Z,73.90
2017-10-01T01:44:10.035Z,73.80
2017-10-01T01:46:38.961Z,72.80
2017-10-01T01:49:08.329Z,74.10
2017-10-01T01:51:37.919Z,73.30
2017-10-01T01:54:06.626Z,73.70
2017-10-01T01:56:36.129Z,74.20
2017-10-01T01:59:05.532Z,73.60
2017-10-01T02:01:34.536Z,73.80
2017-10-01T02:04:02.529Z,73.00
2017-10-01T02:06:31.399Z,72.30
2017-10-01T02:09:00.823Z,73.30
2017-10-01T02:11:30.610Z,72.10
2017-10-01T02:13:59.911Z,71.60
2017-10-01T02:16:28.931Z,73.10
2017-10-01T02:18:58.157Z,73.30
2017-10-01T02:21:29.145Z,72.70
2017-10-01T02:23:58.656Z,72.70
2017-10-01T02:26:28.190Z,72.40
2017-10-01T02:28:57.912Z,73.30
2017-10-01T02:31:28.024Z,73.00
2017-10-01T02:33:58.348Z,72.70
2017-10-01T02:36:28.160Z,72.20
2017-10-01T02:38:57.464Z,71.50
2017-10-01T02:41:26.828Z,71.50
2017-10-01T02:43:56.345Z,71.70
2017-10-01T02:46:24.632Z,72.20
2017-10-01T02:48:53.901Z,71.70
2017-10-01T02:51:22.895Z,71.90
2017-10-01T02:53:51.755Z,71.10
2017-10-01T02:56:22.471Z,72.30
2017-10-01T02:58:52.976Z,71.70
2017-10-01T03:01:22.610Z,71.70
2017-10-01T03:03:52.888Z,72.50
2017-10-01T03:06:22.484Z,72.50
2017-10-01T03:08:52.251Z,72.40
2017-10-01T03:11:22.685Z,72.40
2017-10-01T03:13:51.892Z,71.90
2017-10-01T03:16:21.671Z,72.60
2017-10-01T03:18:51.159Z,72.50
2017-10-01T03:21:20.338Z,72.20
2017-10-01T03:23:50.275Z,72.70
2017-10-01T03:26:19.660Z,72.10
2017-10-01T03:28:48.461Z,72.30
2017-10-01T03:31:17.009Z,72.00
2017-10-01T03:33:46.806Z,71.70
2017-10-01T03:36:16.245Z,71.80
2017-10-01T03:38:45.916Z,73.10
2017-10-01T03:41:16.075Z,72.50
2017-10-01T03:43:44.225Z,72.50
2017-10-01T03:46:13.067Z,72.10
2017-10-01T03:48:41.825Z,72.30
2017-10-01T03:51:10.984Z,72.10
2017-10-01T03:53:40.289Z,70.90
2017-10-01T03:56:10.293Z,70.80
2017-10-01T03:58:38.800Z,71.80
2017-10-01T04:01:07.984Z,72.50
2017-10-01T04:03:38.103Z,72.60
2017-10-01T04:06:08.836Z,71.80
2017-10-01T04:08:39.313Z,73.40
2017-10-01T04:11:08.296Z,73.30
2017-10-01T04:13:36.685Z,72.10
2017-10-01T04:16:06.685Z,72.00
2017-10-01T04:18:36.270Z,72.20
2017-10-01T04:21:06.107Z,71.70
2017-10-01T04:23:35.583Z,71.60
2017-10-01T04:26:05.496Z,71.10
2017-10-01T04:28:35.003Z,71.70
2017-10-01T04:31:04.752Z,72.80
2017-10-01T04:33:34.452Z,72.80
2017-10-01T04:36:02.594Z,72.20
2017-10-01T04:38:31.671Z,71.10
2017-10-01T04:41:00.814Z,71.10
2017-10-01T04:43:30.127Z,72.30
2017-10-01T04:45:59.704Z,71.60
2017-10-01T04:48:30.087Z,71.40
2017-10-01T04:50:59.631Z,71.40
2017-10-01T04:53:29.828Z,71.50
2017-10-01T04:55:58.102Z,71.30
2017-10-01T04:58:27.668Z,72.60
2017-10-01T05:00:56.258Z,73.10
2017-10-01T05:03:25.045Z,72.00
2017-10-01T05:05:55.347Z,72.20
2017-10-01T05:08:25.606Z,70.60
2017-10-01T05:10:55.914Z,70.60
2017-10-01T05:13:23.901Z,70.40
2017-10-01T05:15:53.503Z,71.10
2017-10-01T05:18:22.689Z,70.60
2017-10-01T05:20:52.449Z,71.20
2017-10-01T05:23:21.889Z,71.60
2017-10-01T05:25:51.385Z,70.80
2017-10-01T05:28:20.744Z,70.80
2017-10-01T05:30:49.729Z,70.70
2017-10-01T05:33:18.428Z,69.70
2017-10-01T05:35:47.351Z,69.40
2017-10-01T05:38:16.643Z,69.70
2017-10-01T05:40:45.727Z,69.60
2017-10-01T05:43:13.902Z,69.90
2017-10-01T05:45:43.065Z,70.60
2017-10-01T05:48:11.682Z,70.40
2017-10-01T05:50:40.485Z,69.40
2017-10-01T05:53:09.670Z,69.30
2017-10-01T05:55:38.758Z,69.10
2017-10-01T05:58:07.661Z,69.90
2017-10-01T06:00:37.550Z,69.70
2017-10-01T06:03:08.362Z,69.40
2017-10-01T06:05:37.547Z,70.00
2017-10-01T06:08:07.667Z,69.20
2017-10-01T06:10:37.425Z,69.80
2017-10-01T06:13:06.640Z,69.70
2017-10-01T06:15:35.966Z,69.30
2017-10-01T06:18:06.202Z,70.40
2017-10-01T06:20:36.626Z,70.20
2017-10-01T06:23:06.842Z,70.50
2017-10-01T06:25:36.958Z,69.60
2017-10-01T06:28:05.902Z,69.60
2017-10-01T06:30:35.570Z,69.40
2017-10-01T06:33:04.462Z,69.20
2017-10-01T06:35:34.286Z,70.20
2017-10-01T06:38:04.481Z,71.20
2017-10-01T06:40:33.954Z,71.20
2017-10-01T06:43:03.698Z,70.80
2017-10-01T06:45:33.151Z,69.50
2017-10-01T06:48:03.790Z,69.60
2017-10-01T06:50:33.430Z,69.20
2017-10-01T06:53:02.810Z,69.70
2017-10-01T06:55:32.180Z,69.60
2017-10-01T06:58:01.256Z,69.60
2017-10-01T07:00:29.975Z,69.90
2017-10-01T07:02:59.513Z,69.80
2017-10-01T07:05:29.212Z,69.60
2017-10-01T07:07:58.660Z,69.60
2017-10-01T07:10:28.145Z,69.60
2017-10-01T07:12:57.692Z,68.80
2017-10-01T07:15:27.086Z,70.90
2017-10-01T07:17:57.084Z,70.00
2017-10-01T07:20:26.537Z,70.00
2017-10-01T07:22:57.318Z,69.70
2017-10-01T07:25:27.310Z,69.30
2017-10-01T07:27:56.187Z,69.20
2017-10-01T07:30:25.802Z,69.20
2017-10-01T07:32:55.332Z,68.50
2017-10-01T07:35:26.144Z,67.90
2017-10-01T07:37:55.641Z,68.20
2017-10-01T07:40:25.875Z,67.30
2017-10-01T07:42:56.171Z,67.20
2017-10-01T07:45:26.531Z,67.80
2017-10-01T07:47:55.480Z,69.00
2017-10-01T07:50:26.988Z,68.40
2017-10-01T07:52:56.762Z,68.40
2017-10-01T07:55:26.299Z,67.70
2017-10-01T07:57:55.635Z,68.60
2017-10-01T08:00:25.520Z,67.10
2017-10-01T08:02:54.070Z,67.10
2017-10-01T08:05:23.407Z,68.10
2017-10-01T08:07:52.890Z,67.10
2017-10-01T08:10:22.809Z,66.70
2017-10-01T08:12:52.118Z,67.50
2017-10-01T08:15:29.547Z,68.30
2017-10-01T08:18:00.060Z,66.80
2017-10-01T08:20:28.242Z,67.30
2017-10-01T08:22:57.622Z,65.50
2017-10-01T08:25:27.566Z,64.60
2017-10-01T08:27:57.358Z,63.80
2017-10-01T08:30:26.828Z,63.80
2017-10-01T08:32:56.473Z,64.20
2017-10-01T08:35:25.942Z,63.80
2017-10-01T08:37:55.446Z,63.40
2017-10-01T08:40:24.425Z,63.70
2017-10-01T08:42:53.678Z,64.50
2017-10-01T08:45:22.283Z,65.00
2017-10-01T08:47:51.780Z,64.50
2017-10-01T08:50:21.475Z,65.40
2017-10-01T08:52:50.985Z,64.50
2017-10-01T08:55:20.241Z,65.90
2017-10-01T08:57:49.720Z,65.80
2017-10-01T09:00:20.115Z,64.80
2017-10-01T09:02:50.141Z,64.70
2017-10-01T09:05:19.555Z,66.10
2017-10-01T09:07:49.286Z,66.80
2017-10-01T09:10:19.492Z,66.60
2017-10-01T09:12:48.977Z,66.60
2017-10-01T09:15:19.021Z,67.30
2017-10-01T09:17:49.527Z,67.10
2017-10-01T09:20:19.127Z,67.00
2017-10-01T09:22:48.081Z,67.40
2017-10-01T09:25:17.948Z,64.80
2017-10-01T09:27:46.082Z,64.10
2017-10-01T09:30:15.396Z,65.20
2017-10-01T09:32:43.980Z,65.40
2017-10-01T09:35:13.217Z,64.80
2017-10-01T09:37:43.032Z,63.70
2017-10-01T09:40:12.296Z,63.70
2017-10-01T09:42:41.114Z,62.50
2017-10-01T09:45:10.891Z,61.80
2017-10-01T09:47:40.281Z,63.00
2017-10-01T09:50:09.841Z,63.70
2017-10-01T09:52:40.034Z,63.90
2017-10-01T09:55:07.665Z,63.50
2017-10-01T09:57:36.416Z,63.90
2017-10-01T10:00:03.992Z,63.70
2017-10-01T10:02:32.391Z,65.00
2017-10-01T10:05:00.014Z,64.90
2017-10-01T10:07:27.584Z,63.70
2017-10-01T10:09:55.931Z,63.80
2017-10-01T10:12:23.550Z,63.70
2017-10-01T10:14:51.163Z,64.80
2017-10-01T10:17:18.770Z,65.40
2017-10-01T10:19:46.387Z,64.20
2017-10-01T10:22:14.026Z,61.90
2017-10-01T10:24:41.614Z,60.10
2017-10-01T10:27:09.193Z,60.10
2017-10-01T10:29:37.582Z,59.50
2017-10-01T10:32:05.955Z,57.90
2017-10-01T10:34:34.312Z,58.50
2017-10-01T10:37:01.914Z,58.40
2017-10-01T10:39:32.593Z,56.50
2017-10-01T10:42:02.279Z,55.30
2017-10-01T10:44:32.834Z,52.70
2017-10-01T10:47:02.694Z,49.80
2017-10-01T10:49:34.209Z,46.60
2017-10-01T10:52:05.014Z,46.50
2017-10-01T10:54:35.413Z,45.70
2017-10-01T10:57:05.137Z,47.90
2017-10-01T10:59:35.036Z,49.70
2017-10-01T11:02:04.819Z,53.30
2017-10-01T11:04:34.693Z,52.40
2017-10-01T11:07:04.347Z,50.30
2017-10-01T11:09:34.270Z,51.00
2017-10-01T11:12:06.257Z,50.10
2017-10-01T11:14:37.917Z,50.00
2017-10-01T11:17:07.571Z,50.80
2017-10-01T11:19:37.508Z,50.60
2017-10-01T11:22:07.386Z,50.20
2017-10-01T11:24:37.173Z,52.40
2017-10-01T11:27:09.105Z,52.70
2017-10-01T11:29:39.509Z,51.40
2017-10-01T11:32:10.133Z,51.30
2017-10-01T11:34:40.575Z,50.50
2017-10-01T11:37:10.620Z,51.50
2017-10-01T11:39:42.863Z,47.30
2017-10-01T11:42:12.701Z,47.20
2017-10-01T11:44:43.133Z,40.00
2017-10-01T11:47:13.684Z,38.50
2017-10-01T11:49:48.843Z,38.60
2017-10-01T11:52:20.880Z,41.80
2017-10-01T11:54:51.687Z,39.40
2017-10-01T11:57:21.913Z,37.70
2017-10-01T11:59:52.537Z,36.40
2017-10-01T12:02:23.106Z,36.30
2017-10-01T12:04:54.017Z,35.10
2017-10-01T12:07:25.542Z,32.80
2017-10-01T12:09:55.215Z,32.80
2017-10-01T12:12:25.071Z,32.10
2017-10-01T12:14:55.646Z,32.00
2017-10-01T12:17:25.469Z,31.70
2017-10-01T12:19:56.314Z,30.30
2017-10-01T12:22:26.981Z,30.60
2017-10-01T12:24:57.660Z,32.00
2017-10-01T12:27:29.843Z,31.00
2017-10-01T12:29:59.464Z,31.10
2017-10-01T12:32:31.452Z,31.20
2017-10-01T12:35:01.104Z,32.00
2017-10-01T12:37:30.580Z,31.70
2017-10-01T12:39:59.440Z,33.00
2017-10-01T12:42:28.475Z,32.80
2017-10-01T12:44:58.083Z,33.70
2017-10-01T12:47:27.791Z,34.60
2017-10-01T12:49:59.418Z,35.80
2017-10-01T12:52:29.053Z,35.80
2017-10-01T12:54:59.951Z,36.20
2017-10-01T12:57:30.428Z,37.40
2017-10-01T13:00:00.298Z,38.60
2017-10-01T13:02:29.991Z,39.20
2017-10-01T13:04:59.673Z,39.80
2017-10-01T13:07:31.331Z,40.10
2017-10-01T13:10:01.892Z,36.80
2017-10-01T13:12:32.273Z,36.80
2017-10-01T13:15:03.551Z,38.30
2017-10-01T13:17:33.464Z,37.70
2017-10-01T13:20:04.178Z,39.30
2017-10-01T13:22:34.918Z,40.50
2017-10-01T13:25:07.257Z,40.20
2017-10-01T13:27:38.814Z,40.10
2017-10-01T13:30:08.394Z,40.00
2017-10-01T13:32:38.967Z,40.40
2017-10-01T13:35:09.470Z,40.20
2017-10-01T13:37:38.999Z,38.60
2017-10-01T13:40:08.475Z,40.10
2017-10-01T13:42:38.830Z,40.50
2017-10-01T13:45:08.331Z,40.20
2017-10-01T13:47:38.265Z,41.00
2017-10-01T13:50:09.782Z,38.10
2017-10-01T13:52:40.751Z,38.00
2017-10-01T13:55:11.301Z,39.00
2017-10-01T13:57:42.862Z,40.30
2017-10-01T14:00:13.310Z,41.30
2017-10-01T14:02:43.397Z,42.40
2017-10-01T14:05:19.058Z,40.50
2017-10-01T14:07:48.953Z,40.50
2017-10-01T14:10:19.756Z,39.70
2017-10-01T14:12:49.556Z,40.40
2017-10-01T14:15:19.110Z,40.00
2017-10-01T14:17:49.773Z,40.20
2017-10-01T14:20:19.651Z,40.20
2017-10-01T14:22:49.638Z,39.00
2017-10-01T14:25:20.116Z,39.90
2017-10-01T14:27:51.635Z,38.70
2017-10-01T14:30:22.479Z,38.60
2017-10-01T14:32:52.352Z,37.70
2017-10-01T14:35:23.857Z,37.80
2017-10-01T14:37:55.827Z,40.20
2017-10-01T14:40:26.223Z,39.90
2017-10-01T14:42:56.083Z,39.90
2017-10-01T14:45:25.747Z,38.50
2017-10-01T14:47:55.711Z,37.50
2017-10-01T14:50:25.780Z,37.80
2017-10-01T14:52:56.414Z,38.90
2017-10-01T14:55:26.284Z,40.60
2017-10-01T14:57:56.823Z,41.10
2017-10-01T15:00:27.525Z,39.80
2017-10-01T15:02:57.975Z,42.70
2017-10-01T15:05:27.808Z,42.60
2017-10-01T15:07:57.557Z,39.90
2017-10-01T15:10:28.289Z,41.50
2017-10-01T15:12:57.965Z,41.40
2017-10-01T15:15:28.465Z,41.30
2017-10-01T15:18:02.086Z,41.10
2017-10-01T15:20:41.467Z,38.10
2017-10-01T15:23:11.343Z,38.10
2017-10-01T15:25:43.195Z,39.70
2017-10-01T15:28:13.156Z,39.70
2017-10-01T15:30:42.644Z,40.00
2017-10-01T15:33:10.266Z,40.90
2017-10-01T15:35:37.818Z,40.90
2017-10-01T15:38:06.141Z,41.30
2017-10-01T15:40:33.739Z,41.20
2017-10-01T15:43:01.337Z,41.10
2017-10-01T15:45:28.937Z,39.30
2017-10-01T15:47:56.497Z,40.30
2017-10-01T15:50:24.112Z,41.70
2017-10-01T15:52:51.670Z,42.10
2017-10-01T15:55:19.243Z,42.70
2017-10-01T15:57:46.838Z,43.20
2017-10-01T16:00:14.439Z,43.20
2017-10-01T16:02:42.768Z,42.40
2017-10-01T16:05:10.326Z,42.40
2017-10-01T16:07:37.970Z,41.50
2017-10-01T16:10:05.525Z,41.90
2017-10-01T16:12:33.084Z,43.70
2017-10-01T16:15:00.762Z,44.80
2017-10-01T16:17:28.332Z,45.00
2017-10-01T16:19:57.955Z,45.20
2017-10-01T16:22:28.795Z,45.70
2017-10-01T16:24:58.634Z,46.30
2017-10-01T16:27:29.087Z,46.90
2017-10-01T16:29:58.908Z,46.90
2017-10-01T16:32:29.441Z,46.40
2017-10-01T16:34:59.193Z,47.40
2017-10-01T16:37:29.715Z,53.00
2017-10-01T16:39:59.562Z,53.00
2017-10-01T16:42:30.045Z,54.30
2017-10-01T16:44:59.800Z,55.80
2017-10-01T16:47:30.513Z,56.60
2017-10-01T16:50:00.219Z,56.80
2017-10-01T16:52:30.072Z,56.50
2017-10-01T16:55:00.727Z,56.10
2017-10-01T16:57:38.905Z,56.10
2017-10-01T17:00:09.700Z,56.50
2017-10-01T17:02:41.455Z,56.40
2017-10-01T17:05:11.029Z,57.00
2017-10-01T17:07:40.880Z,58.00
2017-10-01T17:10:10.744Z,58.20
2017-10-01T17:12:40.387Z,58.50
2017-10-01T17:15:10.178Z,57.70
2017-10-01T17:17:40.971Z,57.80
2017-10-01T17:20:11.659Z,57.90
2017-10-01T17:22:41.371Z,57.60
2017-10-01T17:25:11.434Z,56.50
2017-10-01T17:27:41.175Z,55.90
2017-10-01T17:30:11.770Z,57.20
2017-10-01T17:32:45.111Z,56.90
2017-10-01T17:35:14.905Z,56.10
2017-10-01T17:37:45.305Z,57.20
2017-10-01T17:40:16.533Z,57.10
2017-10-01T17:42:47.132Z,57.90
2017-10-01T17:45:16.948Z,58.40
2017-10-01T17:47:48.109Z,58.90
2017-10-01T17:50:18.012Z,58.60
2017-10-01T17:52:47.648Z,58.80
2017-10-01T17:55:17.482Z,58.60
2017-10-01T17:57:50.107Z,58.40
2017-10-01T18:00:20.730Z,58.10
2017-10-01T18:02:50.462Z,58.80
2017-10-01T18:05:20.137Z,58.70
2017-10-01T18:07:51.805Z,59.10
2017-10-01T18:10:21.385Z,59.10
2017-10-01T18:15:28.369Z,57.90
2017-10-01T18:17:59.168Z,57.10
2017-10-01T18:20:29.009Z,56.40
2017-10-01T18:22:59.001Z,55.70
2017-10-01T18:25:28.722Z,55.50
2017-10-01T18:27:58.990Z,55.50
2017-10-01T18:30:28.906Z,56.70
2017-10-01T18:32:58.550Z,56.70
2017-10-01T18:35:29.219Z,56.20
2017-10-01T18:37:59.745Z,56.00
2017-10-01T18:40:30.382Z,56.30
2017-10-01T18:42:59.883Z,55.80
2017-10-01T18:45:29.753Z,55.80
2017-10-01T18:47:59.362Z,56.30
2017-10-01T18:50:29.162Z,56.80
2017-10-01T18:52:59.600Z,57.60
2017-10-01T18:55:29.906Z,58.40
2017-10-01T18:58:01.492Z,58.40
2017-10-01T19:00:31.965Z,57.90
2017-10-01T19:03:01.674Z,57.80
2017-10-01T19:05:31.245Z,57.50
2017-10-01T19:08:08.839Z,57.20
2017-10-01T19:10:38.564Z,57.00
2017-10-01T19:13:08.160Z,56.80
2017-10-01T19:15:38.005Z,56.70
2017-10-01T19:18:07.572Z,57.20
2017-10-01T19:20:38.069Z,56.50
2017-10-01T19:23:09.481Z,57.10
2017-10-01T19:25:39.266Z,56.50
2017-10-01T19:28:08.805Z,56.90
2017-10-01T19:30:38.453Z,57.00
2017-10-01T19:33:09.073Z,56.90
2017-10-01T19:35:39.381Z,56.90
2017-10-01T19:38:10.149Z,56.90
2017-10-01T19:40:40.366Z,57.00
2017-10-01T19:43:10.938Z,56.90
2017-10-01T19:45:41.768Z,56.90
2017-10-01T19:48:11.608Z,56.90
2017-10-01T19:50:41.167Z,57.00
2017-10-01T19:53:15.104Z,57.00
2017-10-01T19:55:46.876Z,56.90
2017-10-01T19:58:16.831Z,57.50
2017-10-01T20:00:47.442Z,57.40
2017-10-01T20:03:17.207Z,58.80
2017-10-01T20:05:47.585Z,58.80
2017-10-01T20:08:17.366Z,59.00
2017-10-01T20:10:47.102Z,59.30
2017-10-01T20:13:16.915Z,59.60
2017-10-01T20:15:47.477Z,60.00
2017-10-01T20:18:18.233Z,59.30
2017-10-01T20:20:48.789Z,58.80
2017-10-01T20:23:23.069Z,58.80
2017-10-01T20:25:53.466Z,63.90
2017-10-01T20:28:23.168Z,63.80
2017-10-01T20:30:52.918Z,63.90
2017-10-01T20:33:23.488Z,63.60
2017-10-01T20:35:53.251Z,63.50
2017-10-01T20:38:23.958Z,65.00
2017-10-01T20:40:53.594Z,65.00
2017-10-01T20:43:28.439Z,63.50
2017-10-01T20:45:59.912Z,62.20
2017-10-01T20:48:30.639Z,62.10
2017-10-01T20:51:00.416Z,61.10
2017-10-01T20:53:31.015Z,59.70
2017-10-01T20:56:01.817Z,59.50
2017-10-01T20:58:35.607Z,59.50
2017-10-01T21:01:07.548Z,60.30
2017-10-01T21:03:37.375Z,60.20
2017-10-01T21:06:08.033Z,60.50
2017-10-01T21:08:39.763Z,60.40
2017-10-01T21:11:10.354Z,60.60
2017-10-01T21:13:39.901Z,60.40
2017-10-01T21:16:10.508Z,60.00
2017-10-01T21:18:43.504Z,59.90
2017-10-01T21:21:13.632Z,60.30
2017-10-01T21:23:43.362Z,60.20
2017-10-01T21:26:14.570Z,61.00
2017-10-01T21:28:44.098Z,61.10
2017-10-01T21:31:14.799Z,61.00
2017-10-01T21:33:44.809Z,61.20
2017-10-01T21:36:14.356Z,60.80
2017-10-01T21:38:44.136Z,61.40
2017-10-01T21:41:13.739Z,61.40
2017-10-01T21:43:43.509Z,61.20
2017-10-01T21:46:13.929Z,62.20
2017-10-01T21:48:48.468Z,62.10
2017-10-01T21:51:18.979Z,62.10
2017-10-01T21:53:50.252Z,62.50
2017-10-01T21:56:19.827Z,62.50
2017-10-01T21:58:58.402Z,62.80
2017-10-01T22:01:28.802Z,62.40
2017-10-01T22:03:58.537Z,62.20
2017-10-01T22:06:28.373Z,61.50
2017-10-01T22:09:00.143Z,61.80
2017-10-01T22:11:29.941Z,61.80
2017-10-01T22:13:59.559Z,61.50
2017-10-01T22:16:31.105Z,61.20
2017-10-01T22:19:01.822Z,62.00
2017-10-01T22:21:31.684Z,61.40
2017-10-01T22:24:02.418Z,61.70
2017-10-01T22:26:40.639Z,61.50
2017-10-01T22:29:11.153Z,61.80
2017-10-01T22:31:40.988Z,61.70
2017-10-01T22:34:10.521Z,62.50
2017-10-01T22:36:40.088Z,61.80
2017-10-01T22:39:10.714Z,61.40
2017-10-01T22:41:41.050Z,61.70
2017-10-01T22:44:11.823Z,61.70
2017-10-01T22:46:41.703Z,61.60
2017-10-01T22:49:12.301Z,61.80
2017-10-01T22:51:42.917Z,61.70
2017-10-01T22:54:13.439Z,63.00
2017-10-01T22:56:45.145Z,63.40
2017-10-01T22:59:15.488Z,63.60
2017-10-01T23:01:45.286Z,63.60
2017-10-01T23:04:15.733Z,62.70
2017-10-01T23:06:45.527Z,62.70
2017-10-01T23:09:16.898Z,63.30
2017-10-01T23:11:46.750Z,63.30
2017-10-01T23:14:16.580Z,62.70
2017-10-01T23:16:46.393Z,62.90
2017-10-01T23:19:16.209Z,63.30
2017-10-01T23:21:47.914Z,62.80
2017-10-01T23:24:18.533Z,62.80
2017-10-01T23:26:48.271Z,63.00
2017-10-01T23:29:18.639Z,62.90
2017-10-01T23:31:49.178Z,62.80
2017-10-01T23:34:19.663Z,63.20
2017-10-01T23:36:51.214Z,63.10
2017-10-01T23:39:27.921Z,63.00
2017-10-01T23:41:58.667Z,62.80
2017-10-01T23:44:28.244Z,63.20
2017-10-01T23:46:58.035Z,63.40
2017-10-01T23:49:27.634Z,63.70
2017-10-01T23:51:57.484Z,63.40
2017-10-01T23:54:28.315Z,63.70
2017-10-01T23:56:59.803Z,63.90
2017-10-01T23:59:30.555Z,63.50
